Terminal Aerodrome Forecast
Issued by NWS Tampa Bay Area, FL

Home | Current Version | Previous Version | Text Only | Print | Product List | Glossary On
Versions: 1 2 3 4 5 6 7 8 9 10 11 12 13 14 15 16
291
FTUS42 KTBW 261725
TAFSRQ
TAF
KSRQ 261725Z 2618/2718 25008KT P6SM VCTS SCT035CB BKN150
     FM262100 29009KT P6SM SCT040 BKN120
     FM270200 VRB04KT P6SM SCT050 SCT100 BKN200=

USA.gov is the U.S. government's official web portal to all federal, state and local government web resources and services.